Time;durP1;ratioP1;P1;durP2;ratioP2;P2;SDS_P1;SDS_P2;PMS_P1;PMS_P2;Temp;Humidity;BMP_temperature;BMP_pressure;BME280_temperature;BME280_humidity;BME280_pressure;Samples;Min_cycle;Max_cycle;Signal;HPM_P1;HPM_P2
2022/04/12 00:01:43;;;;;;;12.02;7.47;;;;;;;9.11;55.89;101066.63;5016389;28;20041;-76
2022/04/12 00:04:08;;;;;;;11.02;6.88;;;;;;;9.07;55.88;101065.28;5019161;28;20037;-73
2022/04/12 00:06:34;;;;;;;10.57;7.00;;;;;;;8.96;56.06;101037.22;5013814;28;20020;-73
2022/04/12 00:09:00;;;;;;;11.25;7.13;;;;;;;8.97;56.10;101042.38;5014293;28;20524;-73
2022/04/12 00:11:25;;;;;;;10.05;6.63;;;;;;;9.00;56.28;101038.59;5014522;28;20040;-72
2022/04/12 00:13:51;;;;;;;12.60;6.90;;;;;;;8.96;56.41;101022.19;5020497;28;20025;-72
2022/04/12 00:16:16;;;;;;;11.07;6.75;;;;;;;8.94;56.07;101021.47;5015906;28;20037;-73
2022/04/12 00:21:26;;;;;;;9.63;6.60;;;;;;;8.92;56.53;101028.75;5013609;28;20060;-73
2022/04/12 00:23:51;;;;;;;10.77;7.03;;;;;;;8.92;56.50;101030.56;5017003;28;20026;-73
2022/04/12 00:26:16;;;;;;;11.88;7.43;;;;;;;8.86;56.38;101020.59;5013711;28;20026;-73
2022/04/12 00:28:41;;;;;;;10.20;6.55;;;;;;;8.88;56.48;101026.56;5012800;28;20688;-72
2022/04/12 00:31:07;;;;;;;11.82;6.65;;;;;;;8.86;56.70;101023.25;5016630;28;20072;-73
2022/04/12 00:33:33;;;;;;;10.77;6.20;;;;;;;8.85;56.74;101013.63;5011786;28;20068;-73
2022/04/12 00:36:00;;;;;;;12.45;6.68;;;;;;;8.85;56.55;101025.06;5016163;28;20025;-73
2022/04/12 00:38:27;;;;;;;10.73;6.72;;;;;;;8.79;56.41;101014.25;5010774;28;20109;-73
2022/04/12 00:40:54;;;;;;;11.35;6.65;;;;;;;8.76;56.79;101004.00;5010183;28;20084;-73
2022/04/12 00:43:21;;;;;;;8.00;5.70;;;;;;;8.82;56.63;101013.97;5008379;28;20270;-72
2022/04/12 00:45:47;;;;;;;7.78;6.00;;;;;;;8.81;56.46;101025.53;5015718;28;20109;-73
2022/04/12 00:48:13;;;;;;;7.90;6.18;;;;;;;8.84;56.66;101028.69;5009550;28;20480;-74
2022/04/12 00:50:40;;;;;;;9.55;5.93;;;;;;;8.86;56.36;101018.78;5013006;28;20029;-72
2022/04/12 00:53:07;;;;;;;8.68;5.43;;;;;;;8.86;56.65;101029.38;5010278;28;20036;-73
2022/04/12 00:55:32;;;;;;;10.57;5.70;;;;;;;8.85;56.88;101030.34;5009465;28;20026;-73
2022/04/12 00:57:58;;;;;;;11.52;5.90;;;;;;;8.85;56.61;101024.22;5012611;28;20441;-72
2022/04/12 01:00:24;;;;;;;11.15;5.70;;;;;;;8.86;56.42;101029.38;5011489;28;20041;-73
2022/04/12 01:02:49;;;;;;;8.05;5.55;;;;;;;8.88;56.46;101023.91;5011631;28;20045;-73
2022/04/12 01:05:14;;;;;;;10.55;5.85;;;;;;;8.88;56.36;101034.50;5010800;28;20037;-73
2022/04/12 01:07:42;;;;;;;8.93;5.45;;;;;;;8.85;56.55;101032.19;5012584;28;20444;-73
2022/04/12 01:10:08;;;;;;;9.98;5.70;;;;;;;8.87;56.16;101028.38;5010103;28;20065;-73
2022/04/12 01:12:38;;;;;;;11.82;5.63;;;;;;;8.85;56.47;101029.53;5011942;28;20120;-73
2022/04/12 01:15:10;;;;;;;10.27;5.85;;;;;;;8.86;56.13;101029.38;5009031;28;20037;-73
2022/04/12 01:17:35;;;;;;;9.80;5.72;;;;;;;8.82;56.39;101016.59;5014090;28;20032;-73
2022/04/12 01:20:00;;;;;;;8.70;5.82;;;;;;;8.82;56.48;101014.78;5008833;28;20034;-74
2022/04/12 01:22:27;;;;;;;10.00;5.85;;;;;;;8.74;56.31;101022.69;5009464;28;20405;-73
2022/04/12 01:24:53;;;;;;;9.75;5.75;;;;;;;8.69;56.35;101020.50;5008295;28;20469;-73
2022/04/12 01:27:19;;;;;;;8.30;5.90;;;;;;;8.62;56.59;101016.78;5008440;28;20036;-73
2022/04/12 01:29:47;;;;;;;8.70;5.45;;;;;;;8.64;56.34;101025.41;5008109;28;20025;-72
2022/04/12 01:32:13;;;;;;;6.78;5.68;;;;;;;8.57;56.64;101018.22;5011356;28;20112;-73
2022/04/12 01:34:39;;;;;;;9.50;5.82;;;;;;;8.56;56.79;101017.41;5008170;28;20733;-73
2022/04/12 01:37:05;;;;;;;8.23;5.90;;;;;;;8.53;56.71;101009.75;5008329;28;20022;-75
2022/04/12 01:39:31;;;;;;;9.90;5.72;;;;;;;8.52;56.67;101018.69;5007616;28;20025;-74
2022/04/12 01:41:56;;;;;;;10.00;5.78;;;;;;;8.51;57.32;101013.56;5008825;28;20116;-74
2022/04/12 01:44:22;;;;;;;9.57;5.68;;;;;;;8.50;57.18;101015.38;5007454;28;20034;-73
2022/04/12 01:46:47;;;;;;;8.68;5.70;;;;;;;8.49;57.24;101008.41;5007681;28;20112;-73
2022/04/12 01:49:13;;;;;;;10.63;5.65;;;;;;;8.49;57.25;101010.22;5009495;28;20079;-73
2022/04/12 01:51:38;;;;;;;7.40;5.53;;;;;;;8.49;57.09;101010.22;5013725;28;20149;-73
2022/04/12 01:54:03;;;;;;;8.43;5.15;;;;;;;8.46;57.47;101006.06;5011110;28;20033;-74
2022/04/12 01:56:31;;;;;;;10.60;5.47;;;;;;;8.41;57.26;100999.59;5008118;28;20512;-73
2022/04/12 01:58:56;;;;;;;8.20;5.32;;;;;;;8.45;57.36;101006.22;5012718;28;20037;-73
2022/04/12 02:01:21;;;;;;;9.48;5.20;;;;;;;8.40;57.29;100998.75;5005223;28;20044;-72
2022/04/12 02:03:47;;;;;;;12.75;6.13;;;;;;;8.32;57.61;100975.66;5013807;28;20083;-74
2022/04/12 02:06:12;;;;;;;10.02;5.70;;;;;;;8.34;57.80;100981.66;5009920;28;20021;-73
2022/04/12 02:08:40;;;;;;;11.40;5.75;;;;;;;8.34;57.84;100986.94;5012593;28;20128;-72
2022/04/12 02:11:06;;;;;;;7.85;5.70;;;;;;;8.24;58.23;100991.47;5006427;28;21431;-72
2022/04/12 02:13:31;;;;;;;9.43;5.70;;;;;;;8.17;57.95;100971.88;5011472;28;20112;-72
2022/04/12 02:15:57;;;;;;;10.13;5.90;;;;;;;8.27;58.26;101006.19;5012043;28;20033;-73
2022/04/12 02:18:22;;;;;;;9.35;5.63;;;;;;;8.25;58.19;101011.63;5006555;28;20116;-75
2022/04/12 02:20:47;;;;;;;11.43;5.78;;;;;;;8.24;58.24;101001.22;5011385;28;20666;-73
2022/04/12 02:23:13;;;;;;;13.30;5.80;;;;;;;8.21;58.26;100997.06;5007595;28;20146;-72
2022/04/12 02:25:38;;;;;;;9.13;5.80;;;;;;;8.22;58.70;101005.81;5010089;28;20103;-75
2022/04/12 02:28:03;;;;;;;12.35;5.90;;;;;;;8.16;58.72;100998.50;5004998;28;20045;-75
2022/04/12 02:30:29;;;;;;;7.43;5.47;;;;;;;8.18;58.79;101010.59;5009284;28;20041;-73
2022/04/12 02:32:54;;;;;;;9.98;5.53;;;;;;;8.16;58.44;101006.44;5007453;28;20036;-73
2022/04/12 02:35:19;;;;;;;10.88;5.30;;;;;;;8.15;58.52;101004.75;5007846;28;20042;-73
2022/04/12 02:37:45;;;;;;;8.02;5.53;;;;;;;8.15;58.91;100999.47;5010209;28;20033;-73
2022/04/12 02:40:10;;;;;;;10.20;6.10;;;;;;;8.14;58.69;100995.16;5009022;28;20121;-73
2022/04/12 02:42:35;;;;;;;10.50;6.00;;;;;;;8.09;58.92;100985.00;5008980;28;20473;-72
2022/04/12 02:45:01;;;;;;;8.30;5.93;;;;;;;8.15;58.68;100991.53;5017493;28;20053;-72
2022/04/12 02:47:28;;;;;;;9.40;5.93;;;;;;;8.14;58.73;100996.00;5009019;28;20688;-73
2022/04/12 02:49:53;;;;;;;9.02;5.35;;;;;;;8.10;59.00;100989.34;5006651;28;20030;-75
2022/04/12 02:52:19;;;;;;;9.07;6.43;;;;;;;8.09;59.11;100987.66;5001893;28;20033;-73
2022/04/12 02:54:44;;;;;;;8.90;5.80;;;;;;;8.06;59.10;100982.69;5009538;28;20048;-74
2022/04/12 02:57:09;;;;;;;9.60;6.10;;;;;;;8.01;59.10;100977.00;5005211;28;20055;-72
2022/04/12 02:59:35;;;;;;;9.60;5.72;;;;;;;7.91;59.42;100961.22;5008298;28;20461;-73
2022/04/12 03:02:00;;;;;;;12.07;6.32;;;;;;;7.94;59.14;100962.75;5007077;28;20057;-74
2022/04/12 03:04:25;;;;;;;10.05;5.82;;;;;;;7.86;59.66;100952.09;5006536;28;20070;-72
2022/04/12 03:06:50;;;;;;;7.78;5.75;;;;;;;7.85;59.71;100950.44;5011056;28;20535;-73
2022/04/12 03:09:18;;;;;;;10.88;6.43;;;;;;;7.68;59.61;100944.97;5008961;28;20030;-72
2022/04/12 03:11:43;;;;;;;8.73;6.13;;;;;;;7.68;60.43;100952.88;5007160;28;20026;-73
2022/04/12 03:14:08;;;;;;;10.88;6.85;;;;;;;7.64;60.11;100943.59;5011971;28;20045;-73
2022/04/12 03:16:34;;;;;;;11.65;6.35;;;;;;;7.73;60.53;100958.56;5027606;28;20865;-72
2022/04/12 03:18:59;;;;;;;15.55;6.82;;;;;;;7.75;60.55;100948.66;5007866;28;20048;-73
2022/04/12 03:21:24;;;;;;;8.00;5.75;;;;;;;7.74;60.52;100949.63;5004197;28;20033;-73
2022/04/12 03:23:50;;;;;;;9.48;6.10;;;;;;;7.78;60.46;100948.34;5006976;28;20030;-73
2022/04/12 03:26:15;;;;;;;9.60;6.15;;;;;;;7.80;60.31;100942.09;5006510;28;20428;-72
2022/04/12 03:28:40;;;;;;;10.38;5.72;;;;;;;7.75;60.33;100927.50;5004426;28;20033;-73
2022/04/12 03:31:06;;;;;;;10.25;5.97;;;;;;;7.86;60.32;100941.50;5011399;28;20113;-73
2022/04/12 03:33:31;;;;;;;10.80;5.85;;;;;;;7.87;60.54;100940.53;5007573;28;20084;-73
2022/04/12 03:35:56;;;;;;;9.40;5.68;;;;;;;7.90;60.28;100943.69;5008434;28;20037;-72
2022/04/12 03:38:22;;;;;;;11.57;6.10;;;;;;;7.91;60.48;100939.25;5008509;28;20033;-72
2022/04/12 03:40:47;;;;;;;10.23;6.22;;;;;;;7.94;60.45;100937.13;5019713;28;20495;-72
2022/04/12 03:43:12;;;;;;;9.23;6.40;;;;;;;7.94;60.50;100938.94;5017302;28;20380;-73
2022/04/12 03:45:38;;;;;;;9.23;6.10;;;;;;;7.89;60.24;100938.56;5016913;28;20056;-72
2022/04/12 03:48:04;;;;;;;9.80;5.90;;;;;;;7.93;60.33;100956.63;5011816;28;20033;-72
2022/04/12 03:50:31;;;;;;;10.13;6.35;;;;;;;7.95;60.55;100945.88;5010153;28;20029;-73
2022/04/12 03:52:56;;;;;;;11.35;6.03;;;;;;;7.94;60.26;100944.22;5015856;28;20496;-73
2022/04/12 03:55:31;;;;;;;12.77;6.18;;;;;;;7.89;60.38;100936.75;5010283;28;20033;-73
2022/04/12 03:57:58;;;;;;;9.43;5.75;;;;;;;7.91;60.64;100921.56;5011635;28;20116;-72
2022/04/12 04:00:24;;;;;;;14.32;6.55;;;;;;;7.75;60.39;100898.44;5006040;28;20113;-73
2022/04/12 04:02:49;;;;;;;8.63;5.75;;;;;;;7.80;60.71;100910.38;5006530;28;20112;-72
2022/04/12 04:05:14;;;;;;;10.43;6.38;;;;;;;7.73;60.87;100910.97;5005131;28;20050;-72
2022/04/12 04:07:39;;;;;;;10.90;6.70;;;;;;;7.67;61.06;100919.50;5009896;28;20025;-72
2022/04/12 04:10:05;;;;;;;12.90;6.20;;;;;;;7.72;61.17;100924.34;5013382;28;20244;-72
2022/04/12 04:12:30;;;;;;;9.98;6.28;;;;;;;7.73;61.32;100916.25;5014614;28;20053;-73
2022/04/12 04:14:56;;;;;;;8.48;5.63;;;;;;;7.81;61.42;100922.63;5010155;28;20671;-72
2022/04/12 04:17:22;;;;;;;9.05;6.07;;;;;;;7.88;61.28;100918.41;5009943;28;20049;-73
2022/04/12 04:19:47;;;;;;;10.07;6.10;;;;;;;7.96;61.25;100926.41;5009757;28;20644;-71
2022/04/12 04:22:12;;;;;;;9.88;6.32;;;;;;;7.98;61.24;100927.06;5009441;28;20064;-70
2022/04/12 04:24:37;;;;;;;11.95;6.50;;;;;;;7.98;61.42;100925.25;5010381;28;20037;-71
2022/04/12 04:27:05;;;;;;;10.20;6.10;;;;;;;7.97;61.39;100917.47;5009376;28;20034;-71
2022/04/12 04:29:33;;;;;;;9.18;6.13;;;;;;;8.01;62.10;100926.75;5011668;28;20109;-71
2022/04/12 04:31:58;;;;;;;10.98;6.40;;;;;;;8.03;61.59;100927.44;5010406;28;20030;-71
2022/04/12 04:34:23;;;;;;;9.63;6.65;;;;;;;7.98;61.65;100921.78;5013663;28;20036;-71
2022/04/12 04:36:49;;;;;;;11.27;6.40;;;;;;;8.06;61.80;100935.06;5012981;28;20141;-71
2022/04/12 04:39:14;;;;;;;8.93;6.07;;;;;;;8.10;61.26;100948.84;5014026;28;20041;-71
2022/04/12 04:41:39;;;;;;;10.90;6.18;;;;;;;8.14;61.11;100932.53;5014797;28;20080;-71
2022/04/12 04:44:05;;;;;;;12.35;6.50;;;;;;;8.10;60.95;100912.66;5011501;28;20034;-71
2022/04/12 04:46:30;;;;;;;9.60;6.40;;;;;;;8.15;61.21;100920.94;5010871;28;20109;-70
2022/04/12 04:48:55;;;;;;;9.50;6.25;;;;;;;8.17;60.91;100945.44;5013714;28;20032;-71
2022/04/12 04:51:21;;;;;;;11.70;6.72;;;;;;;8.20;60.80;100941.66;5011004;28;20076;-71
2022/04/12 04:53:55;;;;;;;9.60;6.13;;;;;;;8.25;60.72;100949.97;5014007;28;20029;-72
2022/04/12 04:56:21;;;;;;;8.77;6.45;;;;;;;8.28;60.64;100952.28;5010980;28;20390;-71
2022/04/12 04:58:46;;;;;;;8.30;6.15;;;;;;;8.31;60.51;100963.41;5008456;28;20041;-72
2022/04/12 05:01:11;;;;;;;10.52;6.20;;;;;;;8.33;60.55;100968.53;5008814;28;20034;-71
2022/04/12 05:03:36;;;;;;;10.68;6.43;;;;;;;8.32;60.19;100970.34;5015079;28;20029;-71
2022/04/12 05:06:02;;;;;;;11.60;6.30;;;;;;;8.38;60.54;100972.44;5012943;28;20554;-71
2022/04/12 05:08:27;;;;;;;14.32;6.57;;;;;;;8.40;60.17;100980.22;5015186;28;20030;-69
2022/04/12 05:10:52;;;;;;;10.82;5.97;;;;;;;8.42;60.36;100972.13;5010167;28;20553;-72
2022/04/12 05:13:17;;;;;;;9.38;6.72;;;;;;;8.46;60.23;100968.19;5011234;28;20091;-71
2022/04/12 05:15:43;;;;;;;10.88;7.20;;;;;;;8.47;60.26;100954.81;5009594;28;20022;-71
2022/04/12 05:18:09;;;;;;;9.38;6.38;;;;;;;8.47;60.10;100951.31;5004683;28;20029;-71
2022/04/12 05:20:34;;;;;;;11.20;7.22;;;;;;;8.44;60.24;100951.63;5008635;28;20092;-71
2022/04/12 05:22:59;;;;;;;11.00;6.80;;;;;;;8.44;60.25;100949.81;5008557;28;20029;-72
2022/04/12 05:25:25;;;;;;;13.02;6.65;;;;;;;8.44;60.57;100952.47;5009241;28;20393;-72
2022/04/12 05:27:50;;;;;;;11.63;6.88;;;;;;;8.49;60.46;100954.66;5008410;28;20057;-71
2022/04/12 05:30:16;;;;;;;11.95;6.63;;;;;;;8.52;60.60;100946.41;5009386;28;20033;-72
2022/04/12 05:32:41;;;;;;;15.02;7.40;;;;;;;8.52;60.92;100949.03;5008489;28;20041;-71
2022/04/12 05:35:08;;;;;;;16.40;7.38;;;;;;;8.53;60.88;100945.41;5007912;28;20026;-71
2022/04/12 05:37:45;;;;;;;14.30;6.68;;;;;;;8.62;60.74;100949.75;5011610;28;20037;-71
2022/04/12 05:40:12;;;;;;;14.43;7.20;;;;;;;8.58;60.49;100928.06;5002123;28;20035;-71
2022/04/12 05:42:39;;;;;;;12.25;7.35;;;;;;;8.66;60.86;100933.41;5006101;28;20038;-70
2022/04/12 05:45:08;;;;;;;12.13;6.78;;;;;;;8.63;60.65;100939.03;5006438;28;20382;-71
2022/04/12 05:47:44;;;;;;;;;;;;;;;8.68;60.79;100939.41;5004569;28;20116;-71
2022/04/12 05:50:10;;;;;;;12.20;7.10;;;;;;;8.62;60.74;100941.81;5011016;28;19913;-71
2022/04/12 05:52:35;;;;;;;18.48;7.35;;;;;;;8.67;60.40;100952.78;5012093;28;20022;-71
2022/04/12 05:55:01;;;;;;;12.90;7.53;;;;;;;8.64;60.66;100955.72;5007998;28;20036;-71
2022/04/12 05:57:26;;;;;;;14.35;7.50;;;;;;;8.71;60.54;100959.44;5016856;28;20013;-71
2022/04/12 05:59:51;;;;;;;13.90;7.20;;;;;;;8.71;60.23;100955.97;5010511;28;20048;-71
2022/04/12 06:02:16;;;;;;;11.77;6.78;;;;;;;8.75;60.52;100957.31;5009609;28;20034;-72
2022/04/12 06:04:42;;;;;;;12.57;6.82;;;;;;;8.75;60.51;100952.84;5013601;28;20440;-70
2022/04/12 06:07:07;;;;;;;13.07;7.43;;;;;;;8.79;60.52;100945.41;5008138;28;20026;-71
2022/04/12 06:09:32;;;;;;;13.10;7.38;;;;;;;8.88;60.69;100953.25;5007547;28;20524;-70
2022/04/12 06:11:58;;;;;;;11.85;7.50;;;;;;;8.99;60.35;100970.72;5007515;28;20121;-67
2022/04/12 06:14:23;;;;;;;13.25;7.63;;;;;;;9.08;60.61;100972.41;5006090;28;20033;-68
2022/04/12 06:16:48;;;;;;;13.20;7.25;;;;;;;9.16;60.42;100969.78;5007574;28;20025;-68
2022/04/12 06:19:14;;;;;;;15.50;7.88;;;;;;;9.14;60.29;100949.75;5014862;28;20276;-68
2022/04/12 06:21:39;;;;;;;11.48;6.90;;;;;;;9.25;60.02;100960.06;5017790;28;20034;-68
2022/04/12 06:24:05;;;;;;;15.43;7.45;;;;;;;9.41;59.85;100961.94;5007186;28;20028;-68
2022/04/12 06:26:30;;;;;;;13.13;7.20;;;;;;;9.52;60.15;100959.00;5012863;28;20576;-68
2022/04/12 06:28:55;;;;;;;11.70;7.32;;;;;;;9.61;60.23;100947.44;5015979;28;20022;-68
2022/04/12 06:31:20;;;;;;;14.07;7.63;;;;;;;9.77;59.67;100941.34;5009440;28;20045;-68
2022/04/12 06:33:46;;;;;;;13.13;7.20;;;;;;;9.89;59.83;100955.97;5014404;28;20408;-68
2022/04/12 06:36:11;;;;;;;14.20;7.70;;;;;;;9.99;59.99;100951.31;5013371;28;20088;-68
2022/04/12 06:38:36;;;;;;;13.13;7.35;;;;;;;10.01;59.52;100944.03;5010176;28;20030;-68
2022/04/12 06:41:02;;;;;;;13.93;7.47;;;;;;;10.18;59.42;100951.03;5009294;28;20017;-67
2022/04/12 06:43:27;;;;;;;12.13;7.20;;;;;;;10.23;58.86;100938.13;5009141;28;20042;-68
2022/04/12 06:45:52;;;;;;;13.48;7.85;;;;;;;10.33;58.75;100939.75;5010849;28;20028;-68
2022/04/12 06:48:17;;;;;;;12.40;7.30;;;;;;;10.41;58.45;100939.78;5005306;28;20033;-68
2022/04/12 06:50:43;;;;;;;12.95;7.35;;;;;;;10.48;58.00;100954.03;5013590;28;20302;-68
2022/04/12 06:53:08;;;;;;;13.95;7.43;;;;;;;10.50;58.16;100949.38;5005585;28;20503;-67
2022/04/12 06:55:33;;;;;;;12.00;7.45;;;;;;;10.68;58.10;100949.19;5006567;28;20032;-67
2022/04/12 06:57:59;;;;;;;13.27;7.13;;;;;;;10.68;57.71;100941.22;5004504;28;20065;-68
2022/04/12 07:00:25;;;;;;;13.35;7.32;;;;;;;10.78;57.67;100942.72;5007489;28;20025;-67
2022/04/12 07:02:50;;;;;;;12.75;7.30;;;;;;;10.81;57.58;100946.84;5001182;28;20060;-67
2022/04/12 07:05:16;;;;;;;13.65;8.02;;;;;;;10.95;57.09;100947.97;5009740;28;20446;-68
2022/04/12 07:07:43;;;;;;;15.10;7.22;;;;;;;10.96;57.44;100942.47;5022465;28;20028;-67
2022/04/12 07:10:10;;;;;;;15.15;7.35;;;;;;;11.00;56.88;100950.97;5003869;28;20066;-67
2022/04/12 07:12:36;;;;;;;12.15;7.72;;;;;;;11.11;57.06;100954.06;5012149;28;20048;-68
2022/04/12 07:15:02;;;;;;;13.15;7.50;;;;;;;11.14;57.06;100947.59;5016275;28;20033;-68
2022/04/12 07:17:28;;;;;;;15.05;7.63;;;;;;;11.18;56.75;100946.25;5011577;28;20028;-68
2022/04/12 07:19:53;;;;;;;13.13;7.47;;;;;;;11.20;56.32;100946.06;5016162;28;20380;-68
2022/04/12 07:22:18;;;;;;;13.55;7.78;;;;;;;11.22;56.47;100946.72;5007616;28;20098;-68
2022/04/12 07:24:44;;;;;;;13.40;7.90;;;;;;;11.35;56.77;100947.84;5018296;28;20033;-67
2022/04/12 07:27:09;;;;;;;13.55;7.80;;;;;;;11.49;56.54;100940.94;5001016;28;20087;-68
2022/04/12 07:29:34;;;;;;;12.57;7.78;;;;;;;11.55;56.34;100950.88;5013989;28;20021;-68
2022/04/12 07:32:00;;;;;;;14.68;7.45;;;;;;;11.63;56.05;100955.34;5019249;28;20036;-68
2022/04/12 07:34:25;;;;;;;12.50;7.80;;;;;;;11.69;56.35;100950.16;5021469;28;20021;-68
2022/04/12 07:36:53;;;;;;;15.20;7.70;;;;;;;11.82;56.12;100936.31;5014778;28;20419;-68
2022/04/12 07:39:20;;;;;;;13.45;8.05;;;;;;;11.92;56.26;100941.41;5023923;28;20535;-68
2022/04/12 07:41:47;;;;;;;12.82;8.13;;;;;;;11.97;56.20;100942.53;5012569;28;20485;-68
2022/04/12 07:44:16;;;;;;;14.15;7.75;;;;;;;12.04;56.09;100935.50;5021730;28;20112;-68
2022/04/12 07:46:41;;;;;;;11.98;8.20;;;;;;;12.27;56.07;100942.63;5022307;28;20022;-68
2022/04/12 07:49:07;;;;;;;13.25;7.97;;;;;;;12.28;56.09;100939.81;5025339;28;20028;-67
2022/04/12 07:51:33;;;;;;;9.88;7.10;;;;;;;12.37;55.48;100932.56;5018659;28;20381;-67
2022/04/12 07:53:58;;;;;;;12.00;8.00;;;;;;;12.52;56.04;100940.59;5023576;28;20029;-67
2022/04/12 07:56:24;;;;;;;15.93;7.80;;;;;;;12.61;55.65;100942.16;5019603;28;20108;-68
2022/04/12 07:58:50;;;;;;;13.00;7.68;;;;;;;12.63;55.20;100935.66;5020799;28;20074;-68
2022/04/12 08:01:15;;;;;;;11.10;7.90;;;;;;;12.70;54.30;100943.72;5018523;28;20422;-68
2022/04/12 08:03:40;;;;;;;12.70;7.40;;;;;;;12.74;54.74;100945.06;5017137;28;20067;-68
2022/04/12 08:06:07;;;;;;;10.55;7.43;;;;;;;12.94;54.88;100948.00;5016354;28;20162;-67
2022/04/12 08:08:32;;;;;;;14.63;7.82;;;;;;;13.02;54.71;100931.94;5014830;28;20029;-67
2022/04/12 08:10:58;;;;;;;13.98;7.88;;;;;;;13.14;54.57;100943.78;5015886;28;20021;-68
2022/04/12 08:13:23;;;;;;;12.55;7.70;;;;;;;13.19;54.58;100945.91;5027583;28;20172;-67
2022/04/12 08:15:49;;;;;;;12.48;7.28;;;;;;;13.25;54.26;100946.00;5026112;28;20044;-68
2022/04/12 08:18:14;;;;;;;10.18;7.35;;;;;;;13.27;54.52;100943.97;5013744;28;20087;-67
2022/04/12 08:20:39;;;;;;;12.95;7.32;;;;;;;13.47;54.52;100946.88;5011357;28;20030;-68
2022/04/12 08:23:05;;;;;;;10.77;7.53;;;;;;;13.60;54.18;100943.56;5018283;28;20057;-67
2022/04/12 08:25:30;;;;;;;14.27;7.35;;;;;;;13.72;53.91;100949.22;5023405;28;20040;-69
2022/04/12 08:27:55;;;;;;;16.85;7.10;;;;;;;13.75;53.88;100936.34;5018480;28;20476;-68
2022/04/12 08:30:21;;;;;;;9.95;6.18;;;;;;;13.85;53.83;100936.84;5011383;28;20041;-68
2022/04/12 08:32:46;;;;;;;11.52;6.20;;;;;;;14.01;53.60;100943.78;5019388;28;20033;-68
2022/04/12 08:35:12;;;;;;;9.57;6.40;;;;;;;14.14;53.71;100940.41;5022371;28;20033;-68
2022/04/12 08:37:37;;;;;;;11.10;5.93;;;;;;;14.22;53.43;100940.31;5022530;28;20053;-68
2022/04/12 08:40:03;;;;;;;9.80;5.60;;;;;;;14.30;52.96;100947.34;5021719;28;20026;-68
2022/04/12 08:42:28;;;;;;;7.97;4.95;;;;;;;14.37;52.30;100948.22;5022314;28;20040;-68
2022/04/12 08:44:54;;;;;;;7.93;4.88;;;;;;;14.48;52.11;100937.06;5020229;28;20064;-68
2022/04/12 08:47:22;;;;;;;11.30;4.50;;;;;;;14.58;51.74;100942.88;5012327;28;20049;-69
2022/04/12 08:49:47;;;;;;;8.35;4.20;;;;;;;14.63;51.22;100929.75;5018459;28;20112;-69
2022/04/12 08:52:13;;;;;;;6.97;4.50;;;;;;;14.68;50.80;100919.31;5012998;28;20473;-69
2022/04/12 08:54:43;;;;;;;10.82;4.70;;;;;;;14.74;50.33;100918.50;5013670;28;20018;-68
2022/04/12 08:57:10;;;;;;;13.05;5.15;;;;;;;14.76;50.21;100907.66;5003529;28;20037;-69
2022/04/12 08:59:36;;;;;;;11.85;4.70;;;;;;;14.87;50.02;100920.47;5006143;28;20109;-69
2022/04/12 09:02:01;;;;;;;8.15;4.57;;;;;;;14.98;50.26;100911.88;5004637;28;20042;-69
2022/04/12 09:04:28;;;;;;;5.70;4.47;;;;;;;15.10;49.76;100910.31;5013565;28;20412;-69
2022/04/12 09:06:58;;;;;;;15.55;4.80;;;;;;;15.25;49.91;100906.66;5008138;28;20034;-68
2022/04/12 09:09:27;;;;;;;12.70;4.63;;;;;;;15.30;49.74;100904.19;5006439;28;20046;-68
2022/04/12 09:12:12;;;;;;;6.45;4.40;;;;;;;15.42;49.80;100898.09;5007266;28;20556;-68
2022/04/12 09:14:37;;;;;;;6.88;4.38;;;;;;;15.50;49.58;100900.59;5018980;28;20033;-68
2022/04/12 09:17:04;;;;;;;5.95;4.32;;;;;;;15.57;49.31;100908.63;5009727;28;20034;-68
2022/04/12 09:19:40;;;;;;;9.35;4.50;;;;;;;15.70;49.17;100913.25;5009043;28;20041;-68
2022/04/12 09:22:11;;;;;;;6.03;4.00;;;;;;;15.69;48.81;100904.38;5007118;28;20029;-68
2022/04/12 09:24:44;;;;;;;7.72;4.15;;;;;;;15.82;48.23;100897.38;5011375;28;20158;-68
2022/04/12 09:27:14;;;;;;;8.52;4.35;;;;;;;15.89;48.50;100893.69;5002004;28;20599;-68
2022/04/12 09:29:48;;;;;;;7.25;4.20;;;;;;;16.07;48.46;100885.88;5006201;28;20037;-67
2022/04/12 09:32:15;;;;;;;7.68;4.10;;;;;;;16.11;48.10;100883.63;5009165;28;20026;-68
2022/04/12 09:34:42;;;;;;;8.10;4.20;;;;;;;16.18;47.74;100878.25;5007504;28;20670;-68
2022/04/12 09:37:17;;;;;;;7.20;3.92;;;;;;;16.30;48.23;100885.47;5011422;28;20733;-67
2022/04/12 09:39:53;;;;;;;12.57;3.95;;;;;;;16.46;47.49;100859.25;5009360;28;20033;-67
2022/04/12 09:42:18;;;;;;;11.50;4.10;;;;;;;16.64;47.47;100880.91;5007485;28;20432;-68
2022/04/12 09:44:44;;;;;;;8.98;3.70;;;;;;;16.78;47.72;100877.22;5007646;28;20036;-67
2022/04/12 09:47:13;;;;;;;6.28;3.67;;;;;;;16.88;47.73;100874.91;5007655;28;20420;-67
2022/04/12 09:49:46;;;;;;;9.07;3.85;;;;;;;17.07;47.40;100883.09;5006480;28;20389;-68
2022/04/12 09:52:12;;;;;;;9.10;3.90;;;;;;;17.14;46.58;100871.31;5006896;28;20515;-67
2022/04/12 09:54:37;;;;;;;10.65;4.22;;;;;;;17.27;46.75;100881.13;5010885;28;20025;-68
2022/04/12 09:57:04;;;;;;;6.45;3.70;;;;;;;17.38;46.87;100860.88;5009071;28;20059;-68
2022/04/12 09:59:32;;;;;;;7.95;4.00;;;;;;;17.57;46.72;100879.53;5006000;28;20034;-68
2022/04/12 10:01:59;;;;;;;7.15;3.70;;;;;;;17.70;46.29;100880.53;5008066;28;20029;-67
2022/04/12 10:04:25;;;;;;;9.82;3.70;;;;;;;17.84;46.00;100887.47;5015505;28;20029;-68
2022/04/12 10:06:51;;;;;;;5.82;4.00;;;;;;;17.83;45.45;100894.69;5010360;28;20026;-67
2022/04/12 10:09:20;;;;;;;7.43;3.80;;;;;;;17.98;45.46;100898.97;5003490;28;20048;-67
2022/04/12 10:11:47;;;;;;;9.30;4.40;;;;;;;18.06;45.26;100874.50;5013103;28;20022;-68
2022/04/12 10:14:14;;;;;;;6.20;3.90;;;;;;;18.02;45.00;100860.69;5006681;28;20625;-68
2022/04/12 10:16:40;;;;;;;8.30;3.92;;;;;;;18.05;45.19;100873.69;5008641;28;20022;-64
2022/04/12 10:19:06;;;;;;;9.23;3.97;;;;;;;18.04;45.07;100860.47;5007136;28;20025;-68
2022/04/12 10:21:32;;;;;;;6.93;3.88;;;;;;;18.04;44.84;100866.66;5014746;28;20078;-68
2022/04/12 10:23:59;;;;;;;8.80;3.95;;;;;;;17.93;44.84;100851.25;5014821;28;20108;-68
2022/04/12 10:26:26;;;;;;;8.23;3.80;;;;;;;17.87;44.55;100828.75;5020763;28;20033;-68
2022/04/12 10:28:55;;;;;;;8.95;3.90;;;;;;;18.00;44.72;100827.00;5018738;28;20120;-68
2022/04/12 10:31:24;;;;;;;7.72;3.97;;;;;;;18.36;45.88;100842.41;5019561;28;20033;-68
2022/04/12 10:34:02;;;;;;;;;;;;;;;18.46;45.76;100842.69;5013974;28;20519;-68
2022/04/12 10:36:56;;;;;;;7.23;4.10;;;;;;;18.45;45.35;100846.44;5019353;28;19913;-68
2022/04/12 10:39:28;;;;;;;8.07;4.32;;;;;;;18.48;45.51;100827.97;5016699;28;20755;-68
2022/04/12 10:41:56;;;;;;;7.15;4.30;;;;;;;18.48;44.74;100840.59;5014446;28;20108;-68
2022/04/12 10:44:22;;;;;;;9.25;4.30;;;;;;;18.44;44.63;100839.41;5010989;28;20482;-68
2022/04/12 10:46:51;;;;;;;6.88;3.60;;;;;;;18.36;44.01;100848.59;5022779;28;20044;-68
2022/04/12 10:49:20;;;;;;;5.25;4.00;;;;;;;18.31;44.26;100836.88;5014552;28;20068;-68
2022/04/12 10:51:48;;;;;;;8.00;4.00;;;;;;;18.34;44.44;100828.34;5020670;28;20029;-68
2022/04/12 10:54:34;;;;;;;10.23;4.03;;;;;;;18.38;45.08;100832.25;5022472;28;20480;-68
2022/04/12 10:57:24;;;;;;;10.40;4.50;;;;;;;18.50;44.96;100811.63;5007851;28;20026;-68
2022/04/12 11:00:02;;;;;;;8.68;4.57;;;;;;;18.48;45.27;100806.47;5008546;28;20028;-68
2022/04/12 11:02:30;;;;;;;9.48;4.10;;;;;;;18.76;45.42;100826.69;5012243;28;20081;-68
2022/04/12 11:04:56;;;;;;;10.20;4.43;;;;;;;18.80;44.93;100809.88;5008136;28;20502;-68
2022/04/12 11:07:29;;;;;;;8.20;4.15;;;;;;;18.85;45.02;100810.03;5016285;28;20029;-68
2022/04/12 11:10:28;;;;;;;7.65;4.00;;;;;;;18.76;44.16;100811.34;5026550;28;20026;-68
2022/04/12 11:13:04;;;;;;;;;;;;;;;18.78;44.73;100821.91;5019922;28;20037;-68
2022/04/12 11:15:30;;;;;;;6.15;3.35;;;;;;;18.70;44.07;100823.03;5022960;28;19957;-68
2022/04/12 11:18:07;;;;;;;8.57;3.50;;;;;;;18.70;44.18;100828.41;5022815;28;20028;-68
2022/04/12 11:20:33;;;;;;;8.85;3.80;;;;;;;18.69;44.06;100834.84;5015260;28;20033;-68
2022/04/12 11:22:59;;;;;;;6.90;3.60;;;;;;;18.79;43.53;100831.59;5019734;28;20384;-68
2022/04/12 11:25:26;;;;;;;7.68;3.78;;;;;;;18.97;43.17;100828.09;5021332;28;20056;-68
2022/04/12 11:28:00;;;;;;;13.02;3.42;;;;;;;18.97;43.07;100817.31;5015368;28;20073;-68